This is the latest recevied weather packets stored in our database for station/object BMCB-38. If no packets are shown the sender has not sent any weather packets the latest 10 day(s).
| Time | Temp. | Humidity | Pressure | Rain* | Wind** | Luminosity | Snow |
|---|---|---|---|---|---|---|---|
| 1777767032 | 15° C | 84% | 1013.3 hPa | 0 mm | - | 0 W/m² | - |
| 1777764037 | 15.56° C | 83% | 1013.5 hPa | 0 mm | - | 0 W/m² | - |
| 1777762835 | 16.11° C | 79% | 1013.6 hPa | 0 mm | - | 0 W/m² | - |
| 1777759236 | 15.56° C | 83% | 1013.7 hPa | 0 mm | - | 0 W/m² | - |
| 1777740636 | 22.22° C | 54% | 1013.9 hPa | 0 mm | - | 102 W/m² | - |
| 1777740037 | 22.22° C | 53% | 1014 hPa | 0 mm | - | 118 W/m² | - |
| 1777732834 | 22.78° C | 53% | 1015.7 hPa | 0 mm | - | 510 W/m² | - |
| 1777729835 | 22.78° C | 57% | 1016.5 hPa | 0 mm | - | 674 W/m² | - |
| 1777726234 | 21.11° C | 60% | 1017.4 hPa | 0 mm | - | 552 W/m² | - |
| 1777724437 | 21.11° C | 61% | 1017.7 hPa | 0 mm | - | 652 W/m² | - |
| 1777709436 | 17.22° C | 71% | 1019.6 hPa | 0 mm | - | 466 W/m² | - |
| 1777705224 | 13.33° C | 79% | 1020.3 hPa | 0 mm | - | 116 W/m² | - |
| 1777704637 | 13.33° C | 79% | 1020.3 hPa | 0 mm | - | 76 W/m² | - |
| 1777702240 | 12.22° C | 80% | 1020.4 hPa | 0 mm | - | 98 W/m² | - |
| 1777701039 | 11.67° C | 80% | 1020.4 hPa | 0 mm | - | 78 W/m² | - |
| 1777693838 | 12.78° C | 57% | 1020.3 hPa | 0 mm | - | 0 W/m² | - |
| 1777692626 | 12.78° C | 56% | 1020.5 hPa | 0 mm | - | 0 W/m² | - |
| 1777681836 | 11.67° C | 58% | 1021 hPa | 0 mm | - | 0 W/m² | - |
| 1777681237 | 11.67° C | 58% | 1021.2 hPa | 0 mm | - | 0 W/m² | - |
| 1777662033 | 20.56° C | 27% | 1021.2 hPa | 0 mm | - | 2 W/m² | - |
| 1777657232 | 22.22° C | 23% | 1020.9 hPa | 0 mm | - | 124 W/m² | - |
| 1777656636 | 22.22° C | 22% | 1020.9 hPa | 0 mm | - | 148 W/m² | - |
| 1777656034 | 22.78° C | 21% | 1021 hPa | 0 mm | - | 174 W/m² | - |
| 1777648835 | 23.33° C | 23% | 1021.4 hPa | 0 mm | - | 498 W/m² | - |
| 1777642236 | 22.22° C | 24% | 1022.3 hPa | 0 mm | - | 722 W/m² | - |
* Rain latest hour (hover to see other rain measurements)
** Current wind speed in m/s (hover to see current wind gust speed)